sensor_id;sensor_type;location;lat;lon;timestamp;pressure;altitude;pressure_sealevel;temperature;humidity
7940;BME280;4015;48.888;9.226;2022-11-11T00:01:06;157009.16;;;7.01;97.30
7940;BME280;4015;48.888;9.226;2022-11-11T00:03:32;157018.09;;;7.05;96.96
7940;BME280;4015;48.888;9.226;2022-11-11T00:06:08;157033.41;;;7.11;96.77
7940;BME280;4015;48.888;9.226;2022-11-11T00:08:34;157041.00;;;7.14;97.08
7940;BME280;4015;48.888;9.226;2022-11-11T00:11:01;157037.22;;;7.13;97.16
7940;BME280;4015;48.888;9.226;2022-11-11T00:13:27;157025.72;;;7.08;97.14
7940;BME280;4015;48.888;9.226;2022-11-11T00:15:53;157007.88;;;7.01;97.08
7940;BME280;4015;48.888;9.226;2022-11-11T00:18:18;156986.25;;;6.92;97.03
7940;BME280;4015;48.888;9.226;2022-11-11T00:21:02;156965.81;;;6.84;96.69
7940;BME280;4015;48.888;9.226;2022-11-11T00:23:46;156935.25;;;6.72;97.62
7940;BME280;4015;48.888;9.226;2022-11-11T00:26:30;156917.41;;;6.65;98.35
7940;BME280;4015;48.888;9.226;2022-11-11T00:28:55;156922.53;;;6.67;97.91
7940;BME280;4015;48.888;9.226;2022-11-11T00:31:21;156927.63;;;6.69;97.18
7940;BME280;4015;48.888;9.226;2022-11-11T00:33:46;156872.81;;;6.47;99.03
7940;BME280;4015;48.888;9.226;2022-11-11T00:36:11;156839.69;;;6.34;100.00
7940;BME280;4015;48.888;9.226;2022-11-11T00:38:36;156796.44;;;6.16;100.00
7940;BME280;4015;48.888;9.226;2022-11-11T00:41:13;156818.06;;;6.25;100.00
7940;BME280;4015;48.888;9.226;2022-11-11T00:43:39;156827.00;;;6.29;100.00
7940;BME280;4015;48.888;9.226;2022-11-11T00:46:05;156820.59;;;6.26;100.00
7940;BME280;4015;48.888;9.226;2022-11-11T00:48:49;156801.50;;;6.18;100.00
7940;BME280;4015;48.888;9.226;2022-11-11T00:51:32;156847.38;;;6.37;99.56
7940;BME280;4015;48.888;9.226;2022-11-11T00:53:58;156858.84;;;6.41;99.31
7940;BME280;4015;48.888;9.226;2022-11-11T00:56:23;156844.81;;;6.36;99.20
7940;BME280;4015;48.888;9.226;2022-11-11T00:58:49;156856.25;;;6.40;99.66
7940;BME280;4015;48.888;9.226;2022-11-11T01:01:15;156877.94;;;6.49;99.20
7940;BME280;4015;48.888;9.226;2022-11-11T01:03:40;156846.09;;;6.36;98.92
7940;BME280;4015;48.888;9.226;2022-11-11T01:06:06;156842.22;;;6.35;98.37
7940;BME280;4015;48.888;9.226;2022-11-11T01:08:31;156860.09;;;6.42;98.39
7940;BME280;4015;48.888;9.226;2022-11-11T01:10:57;156891.97;;;6.55;97.34
7940;BME280;4015;48.888;9.226;2022-11-11T01:13:25;156879.22;;;6.49;97.02
7940;BME280;4015;48.888;9.226;2022-11-11T01:15:56;156840.97;;;6.34;97.03
7940;BME280;4015;48.888;9.226;2022-11-11T01:18:24;156722.50;;;5.87;99.51
7940;BME280;4015;48.888;9.226;2022-11-11T01:21:05;156688.13;;;5.73;100.00
7940;BME280;4015;48.888;9.226;2022-11-11T01:23:34;156719.97;;;5.86;100.00
7940;BME280;4015;48.888;9.226;2022-11-11T01:26:20;156763.28;;;6.03;100.00
7940;BME280;4015;48.888;9.226;2022-11-11T01:28:50;156762.00;;;6.03;100.00
7940;BME280;4015;48.888;9.226;2022-11-11T01:31:17;156778.56;;;6.09;100.00
7940;BME280;4015;48.888;9.226;2022-11-11T01:33:43;156751.84;;;5.99;100.00
7940;BME280;4015;48.888;9.226;2022-11-11T01:36:11;156732.75;;;5.91;100.00
7940;BME280;4015;48.888;9.226;2022-11-11T01:38:38;156769.66;;;6.06;100.00
7940;BME280;4015;48.888;9.226;2022-11-11T01:41:06;156782.41;;;6.11;99.46
7940;BME280;4015;48.888;9.226;2022-11-11T01:43:50;156731.38;;;5.90;100.00
7940;BME280;4015;48.888;9.226;2022-11-11T01:49:23;156740.38;;;5.94;100.00
7940;BME280;4015;48.888;9.226;2022-11-11T01:54:23;156658.84;;;5.61;100.00
7940;BME280;4015;48.888;9.226;2022-11-11T01:56:57;156665.19;;;5.64;100.00
7940;BME280;4015;48.888;9.226;2022-11-11T01:59:24;156646.09;;;5.56;100.00
7940;BME280;4015;48.888;9.226;2022-11-11T02:01:49;156637.16;;;5.53;100.00
7940;BME280;4015;48.888;9.226;2022-11-11T02:04:16;156675.38;;;5.68;100.00
7940;BME280;4015;48.888;9.226;2022-11-11T02:07:04;156711.03;;;5.82;100.00
7940;BME280;4015;48.888;9.226;2022-11-11T02:09:31;156727.56;;;5.89;100.00
7940;BME280;4015;48.888;9.226;2022-11-11T02:11:59;156745.44;;;5.96;100.00
7940;BME280;4015;48.888;9.226;2022-11-11T02:14:48;156741.63;;;5.94;99.77
7940;BME280;4015;48.888;9.226;2022-11-11T02:17:15;156756.91;;;6.01;99.83
7940;BME280;4015;48.888;9.226;2022-11-11T02:19:48;156750.56;;;5.98;99.51
7940;BME280;4015;48.888;9.226;2022-11-11T02:22:37;156755.66;;;6.00;98.88
7940;BME280;4015;48.888;9.226;2022-11-11T02:25:07;156768.41;;;6.05;98.99
7940;BME280;4015;48.888;9.226;2022-11-11T02:27:36;156760.72;;;6.02;98.20
7940;BME280;4015;48.888;9.226;2022-11-11T02:30:05;156763.28;;;6.03;98.33
7940;BME280;4015;48.888;9.226;2022-11-11T02:32:30;156776.00;;;6.08;98.59
7940;BME280;4015;48.888;9.226;2022-11-11T02:34:56;156753.09;;;5.99;99.37
7940;BME280;4015;48.888;9.226;2022-11-11T02:37:24;156768.41;;;6.05;99.00
7940;BME280;4015;48.888;9.226;2022-11-11T02:39:52;156774.75;;;6.08;99.02
7940;BME280;4015;48.888;9.226;2022-11-11T02:42:21;156774.75;;;6.08;98.94
7940;BME280;4015;48.888;9.226;2022-11-11T02:44:47;156763.28;;;6.03;98.45
7940;BME280;4015;48.888;9.226;2022-11-11T02:47:13;156764.59;;;6.04;98.37
7940;BME280;4015;48.888;9.226;2022-11-11T02:49:38;156770.94;;;6.06;97.97
7940;BME280;4015;48.888;9.226;2022-11-11T02:52:03;156765.84;;;6.04;98.12
7940;BME280;4015;48.888;9.226;2022-11-11T02:54:29;156769.66;;;6.06;98.21
7940;BME280;4015;48.888;9.226;2022-11-11T02:56:54;156728.84;;;5.89;98.75
7940;BME280;4015;48.888;9.226;2022-11-11T02:59:36;156760.72;;;6.02;98.47
7940;BME280;4015;48.888;9.226;2022-11-11T03:02:03;156727.56;;;5.89;98.89
7940;BME280;4015;48.888;9.226;2022-11-11T03:04:29;156736.56;;;5.92;98.47
7940;BME280;4015;48.888;9.226;2022-11-11T03:06:54;156686.84;;;5.73;99.40
7940;BME280;4015;48.888;9.226;2022-11-11T03:09:19;156646.09;;;5.56;100.00
7940;BME280;4015;48.888;9.226;2022-11-11T03:11:45;156610.47;;;5.42;100.00
7940;BME280;4015;48.888;9.226;2022-11-11T03:14:10;156619.34;;;5.46;100.00
7940;BME280;4015;48.888;9.226;2022-11-11T03:16:35;156621.88;;;5.47;99.83
7940;BME280;4015;48.888;9.226;2022-11-11T03:19:19;156661.38;;;5.62;99.28
7940;BME280;4015;48.888;9.226;2022-11-11T03:21:45;156658.84;;;5.61;99.40
7940;BME280;4015;48.888;9.226;2022-11-11T03:24:10;156703.41;;;5.79;99.52
7940;BME280;4015;48.888;9.226;2022-11-11T03:26:36;156725.03;;;5.88;99.16
7940;BME280;4015;48.888;9.226;2022-11-11T03:29:02;156734.03;;;5.91;98.97
7940;BME280;4015;48.888;9.226;2022-11-11T03:31:28;156753.09;;;5.99;98.58
7940;BME280;4015;48.888;9.226;2022-11-11T03:33:53;156755.66;;;6.00;98.44
7940;BME280;4015;48.888;9.226;2022-11-11T03:36:19;156764.59;;;6.04;98.75
7940;BME280;4015;48.888;9.226;2022-11-11T03:38:44;156786.22;;;6.12;98.57
7940;BME280;4015;48.888;9.226;2022-11-11T03:41:10;156772.19;;;6.07;98.34
7940;BME280;4015;48.888;9.226;2022-11-11T03:43:35;156708.47;;;5.81;99.16
7940;BME280;4015;48.888;9.226;2022-11-11T03:46:02;156625.75;;;5.48;100.00
7940;BME280;4015;48.888;9.226;2022-11-11T03:48:31;156616.81;;;5.45;100.00
7940;BME280;4015;48.888;9.226;2022-11-11T03:50:57;156618.09;;;5.45;100.00
7940;BME280;4015;48.888;9.226;2022-11-11T03:53:22;156642.28;;;5.55;100.00
7940;BME280;4015;48.888;9.226;2022-11-11T03:55:48;156660.09;;;5.62;100.00
7940;BME280;4015;48.888;9.226;2022-11-11T03:58:15;156643.56;;;5.55;100.00
7940;BME280;4015;48.888;9.226;2022-11-11T04:00:41;156656.31;;;5.60;100.00
7940;BME280;4015;48.888;9.226;2022-11-11T04:03:10;156637.16;;;5.53;100.00
7940;BME280;4015;48.888;9.226;2022-11-11T04:05:54;156656.31;;;5.60;100.00
7940;BME280;4015;48.888;9.226;2022-11-11T04:08:38;156675.38;;;5.68;99.44
7940;BME280;4015;48.888;9.226;2022-11-11T04:11:32;156677.94;;;5.69;98.76
7940;BME280;4015;48.888;9.226;2022-11-11T04:14:02;156671.59;;;5.66;98.22
7940;BME280;4015;48.888;9.226;2022-11-11T04:16:46;156667.72;;;5.65;98.14
7940;BME280;4015;48.888;9.226;2022-11-11T04:19:12;156658.84;;;5.61;97.84
7940;BME280;4015;48.888;9.226;2022-11-11T04:21:55;156697.00;;;5.77;97.81
7940;BME280;4015;48.888;9.226;2022-11-11T04:24:21;156679.19;;;5.69;98.10
7940;BME280;4015;48.888;9.226;2022-11-11T04:27:07;156674.13;;;5.67;98.74
7940;BME280;4015;48.888;9.226;2022-11-11T04:29:33;156651.16;;;5.58;99.67
7940;BME280;4015;48.888;9.226;2022-11-11T04:34:46;156688.13;;;5.73;99.25
7940;BME280;4015;48.888;9.226;2022-11-11T04:37:12;156708.47;;;5.81;98.59
7940;BME280;4015;48.888;9.226;2022-11-11T04:39:38;156669.00;;;5.65;98.93
7940;BME280;4015;48.888;9.226;2022-11-11T04:42:22;156679.19;;;5.69;98.98
7940;BME280;4015;48.888;9.226;2022-11-11T04:44:48;156680.47;;;5.70;98.42
7940;BME280;4015;48.888;9.226;2022-11-11T04:47:32;156665.19;;;5.64;98.85
7940;BME280;4015;48.888;9.226;2022-11-11T04:49:57;156670.31;;;5.66;98.38
7940;BME280;4015;48.888;9.226;2022-11-11T04:52:23;156670.31;;;5.66;98.08
7940;BME280;4015;48.888;9.226;2022-11-11T04:54:55;156667.72;;;5.65;97.83
7940;BME280;4015;48.888;9.226;2022-11-11T04:57:41;156653.72;;;5.59;98.01
7940;BME280;4015;48.888;9.226;2022-11-11T05:00:12;156648.63;;;5.57;98.03
7940;BME280;4015;48.888;9.226;2022-11-11T05:02:37;156657.56;;;5.61;97.50
7940;BME280;4015;48.888;9.226;2022-11-11T05:05:23;156666.44;;;5.64;97.57
7940;BME280;4015;48.888;9.226;2022-11-11T05:07:49;156669.00;;;5.65;97.63
7940;BME280;4015;48.888;9.226;2022-11-11T05:10:37;156662.66;;;5.63;97.94
7940;BME280;4015;48.888;9.226;2022-11-11T05:13:03;156683.00;;;5.71;98.00
7940;BME280;4015;48.888;9.226;2022-11-11T05:15:47;156689.41;;;5.74;97.98
7940;BME280;4015;48.888;9.226;2022-11-11T05:18:31;156677.94;;;5.69;97.87
7940;BME280;4015;48.888;9.226;2022-11-11T05:21:18;156655.03;;;5.60;99.03
7940;BME280;4015;48.888;9.226;2022-11-11T05:23:44;156652.44;;;5.59;99.09
7940;BME280;4015;48.888;9.226;2022-11-11T05:26:28;156641.03;;;5.54;99.10
7940;BME280;4015;48.888;9.226;2022-11-11T05:28:54;156625.75;;;5.48;99.11
7940;BME280;4015;48.888;9.226;2022-11-11T05:31:19;156620.63;;;5.46;99.40
7940;BME280;4015;48.888;9.226;2022-11-11T05:33:44;156651.16;;;5.58;98.60
7940;BME280;4015;48.888;9.226;2022-11-11T05:36:10;156614.28;;;5.44;99.26
7940;BME280;4015;48.888;9.226;2022-11-11T05:38:35;156564.63;;;5.24;100.00
7940;BME280;4015;48.888;9.226;2022-11-11T05:41:00;156555.72;;;5.20;100.00
7940;BME280;4015;48.888;9.226;2022-11-11T05:43:25;156542.97;;;5.15;100.00
7940;BME280;4015;48.888;9.226;2022-11-11T05:45:51;156530.28;;;5.10;100.00
7940;BME280;4015;48.888;9.226;2022-11-11T05:48:16;156548.09;;;5.17;100.00
7940;BME280;4015;48.888;9.226;2022-11-11T05:50:41;156583.72;;;5.31;100.00
7940;BME280;4015;48.888;9.226;2022-11-11T05:53:07;156582.44;;;5.31;100.00
7940;BME280;4015;48.888;9.226;2022-11-11T05:55:32;156572.25;;;5.27;100.00
7940;BME280;4015;48.888;9.226;2022-11-11T05:57:58;156550.63;;;5.18;100.00
7940;BME280;4015;48.888;9.226;2022-11-11T06:00:23;156530.28;;;5.10;100.00
7940;BME280;4015;48.888;9.226;2022-11-11T06:02:49;156517.56;;;5.05;100.00
7940;BME280;4015;48.888;9.226;2022-11-11T06:05:14;156542.97;;;5.15;100.00
7940;BME280;4015;48.888;9.226;2022-11-11T06:07:40;156573.53;;;5.27;99.78
7940;BME280;4015;48.888;9.226;2022-11-11T06:10:06;156569.72;;;5.26;99.46
7940;BME280;4015;48.888;9.226;2022-11-11T06:12:49;156604.06;;;5.39;98.89
7940;BME280;4015;48.888;9.226;2022-11-11T06:15:33;156595.19;;;5.36;98.42
7940;BME280;4015;48.888;9.226;2022-11-11T06:17:59;156595.19;;;5.36;98.03
7940;BME280;4015;48.888;9.226;2022-11-11T06:20:25;156565.91;;;5.24;98.30
7940;BME280;4015;48.888;9.226;2022-11-11T06:22:50;156567.19;;;5.25;98.81
7940;BME280;4015;48.888;9.226;2022-11-11T06:25:26;156558.25;;;5.21;98.44
7940;BME280;4015;48.888;9.226;2022-11-11T06:28:11;156544.28;;;5.16;99.35
7940;BME280;4015;48.888;9.226;2022-11-11T06:30:37;156526.44;;;5.08;99.27
7940;BME280;4015;48.888;9.226;2022-11-11T06:33:02;156537.91;;;5.13;99.32
7940;BME280;4015;48.888;9.226;2022-11-11T06:35:28;156522.63;;;5.07;99.49
7940;BME280;4015;48.888;9.226;2022-11-11T06:37:53;156545.56;;;5.16;99.92
7940;BME280;4015;48.888;9.226;2022-11-11T06:40:19;156556.97;;;5.21;99.70
7940;BME280;4015;48.888;9.226;2022-11-11T06:42:44;156523.91;;;5.07;99.44
7940;BME280;4015;48.888;9.226;2022-11-11T06:45:10;156512.47;;;5.03;100.00
7940;BME280;4015;48.888;9.226;2022-11-11T06:47:35;156503.53;;;4.99;100.00
7940;BME280;4015;48.888;9.226;2022-11-11T06:50:04;156497.19;;;4.97;100.00
7940;BME280;4015;48.888;9.226;2022-11-11T06:52:30;156517.56;;;5.05;100.00
7940;BME280;4015;48.888;9.226;2022-11-11T06:54:55;156513.75;;;5.03;99.76
7940;BME280;4015;48.888;9.226;2022-11-11T06:57:23;156507.34;;;5.01;99.96
7940;BME280;4015;48.888;9.226;2022-11-11T06:59:49;156473.00;;;4.87;100.00
7940;BME280;4015;48.888;9.226;2022-11-11T07:02:14;156518.81;;;5.05;100.00
7940;BME280;4015;48.888;9.226;2022-11-11T07:04:39;156518.81;;;5.05;99.61
7940;BME280;4015;48.888;9.226;2022-11-11T07:07:05;156540.44;;;5.14;99.79
7940;BME280;4015;48.888;9.226;2022-11-11T07:09:30;156544.28;;;5.16;99.81
7940;BME280;4015;48.888;9.226;2022-11-11T07:11:56;156553.16;;;5.19;99.11
7940;BME280;4015;48.888;9.226;2022-11-11T07:14:21;156578.66;;;5.29;99.01
7940;BME280;4015;48.888;9.226;2022-11-11T07:16:47;156551.91;;;5.19;98.99
7940;BME280;4015;48.888;9.226;2022-11-11T07:19:12;156570.97;;;5.26;99.66
7940;BME280;4015;48.888;9.226;2022-11-11T07:21:38;156579.91;;;5.30;99.41
7940;BME280;4015;48.888;9.226;2022-11-11T07:24:03;156596.47;;;5.36;99.49
7940;BME280;4015;48.888;9.226;2022-11-11T07:26:28;156620.63;;;5.46;99.76
7940;BME280;4015;48.888;9.226;2022-11-11T07:28:54;156685.59;;;5.72;99.06
7940;BME280;4015;48.888;9.226;2022-11-11T07:31:20;156657.56;;;5.61;99.51
7940;BME280;4015;48.888;9.226;2022-11-11T07:33:45;156698.28;;;5.77;99.27
7940;BME280;4015;48.888;9.226;2022-11-11T07:36:10;156722.50;;;5.87;98.01
7940;BME280;4015;48.888;9.226;2022-11-11T07:38:36;156755.66;;;6.00;97.02
7940;BME280;4015;48.888;9.226;2022-11-11T07:41:01;156776.00;;;6.08;96.95
7940;BME280;4015;48.888;9.226;2022-11-11T07:43:26;156782.41;;;6.11;96.47
7940;BME280;4015;48.888;9.226;2022-11-11T07:45:52;156788.75;;;6.13;96.39
7940;BME280;4015;48.888;9.226;2022-11-11T07:48:17;156791.28;;;6.14;96.55
7940;BME280;4015;48.888;9.226;2022-11-11T07:50:42;156897.03;;;6.57;96.01
7940;BME280;4015;48.888;9.226;2022-11-11T07:53:08;156918.69;;;6.65;94.43
7940;BME280;4015;48.888;9.226;2022-11-11T07:55:33;156916.13;;;6.64;94.00
7940;BME280;4015;48.888;9.226;2022-11-11T07:57:59;156881.75;;;6.51;94.14
7940;BME280;4015;48.888;9.226;2022-11-11T08:00:26;156905.97;;;6.60;94.01
7940;BME280;4015;48.888;9.226;2022-11-11T08:02:52;156946.72;;;6.76;93.50
7940;BME280;4015;48.888;9.226;2022-11-11T08:05:17;156956.94;;;6.81;93.41
7940;BME280;4015;48.888;9.226;2022-11-11T08:07:42;156941.63;;;6.74;93.29
7940;BME280;4015;48.888;9.226;2022-11-11T08:10:10;156986.25;;;6.92;92.96
7940;BME280;4015;48.888;9.226;2022-11-11T08:12:36;156990.06;;;6.94;92.79
7940;BME280;4015;48.888;9.226;2022-11-11T08:15:20;157007.88;;;7.01;93.19
7940;BME280;4015;48.888;9.226;2022-11-11T08:17:46;156996.41;;;6.96;92.80
7940;BME280;4015;48.888;9.226;2022-11-11T08:20:12;156979.84;;;6.90;93.26
7940;BME280;4015;48.888;9.226;2022-11-11T08:22:41;157000.25;;;6.98;93.93
7940;BME280;4015;48.888;9.226;2022-11-11T08:25:08;157009.16;;;7.01;93.06
7940;BME280;4015;48.888;9.226;2022-11-11T08:27:35;156988.78;;;6.93;93.56
7940;BME280;4015;48.888;9.226;2022-11-11T08:30:01;156996.41;;;6.96;93.48
7940;BME280;4015;48.888;9.226;2022-11-11T08:32:26;157012.97;;;7.03;93.97
7940;BME280;4015;48.888;9.226;2022-11-11T08:34:54;157042.28;;;7.15;93.92
7940;BME280;4015;48.888;9.226;2022-11-11T08:37:20;157038.47;;;7.13;94.56
7940;BME280;4015;48.888;9.226;2022-11-11T08:39:45;157071.59;;;7.26;94.38
7940;BME280;4015;48.888;9.226;2022-11-11T08:42:10;157122.59;;;7.47;94.70
7940;BME280;4015;48.888;9.226;2022-11-11T08:44:36;157200.34;;;7.78;93.93
7940;BME280;4015;48.888;9.226;2022-11-11T08:47:02;157267.97;;;8.05;93.00
7940;BME280;4015;48.888;9.226;2022-11-11T08:49:27;157278.13;;;8.09;91.54
7940;BME280;4015;48.888;9.226;2022-11-11T08:51:52;157298.59;;;8.17;91.15
7940;BME280;4015;48.888;9.226;2022-11-11T08:54:18;157378.97;;;8.49;90.71
7940;BME280;4015;48.888;9.226;2022-11-11T08:56:43;157344.50;;;8.35;90.04
7940;BME280;4015;48.888;9.226;2022-11-11T08:59:09;157401.91;;;8.58;89.45
7940;BME280;4015;48.888;9.226;2022-11-11T09:01:35;157441.50;;;8.74;88.62
7940;BME280;4015;48.888;9.226;2022-11-11T09:04:00;157475.94;;;8.88;88.12
7940;BME280;4015;48.888;9.226;2022-11-11T09:06:27;157544.81;;;9.15;87.80
7940;BME280;4015;48.888;9.226;2022-11-11T09:08:53;157687.78;;;9.72;88.51
7940;BME280;4015;48.888;9.226;2022-11-11T09:11:18;157769.47;;;10.05;86.48
7940;BME280;4015;48.888;9.226;2022-11-11T09:13:44;157743.97;;;9.95;84.79
7940;BME280;4015;48.888;9.226;2022-11-11T09:16:13;157888.34;;;10.52;85.06
7940;BME280;4015;48.888;9.226;2022-11-11T09:18:38;158000.75;;;10.97;82.19
7940;BME280;4015;48.888;9.226;2022-11-11T09:21:04;158178.38;;;11.68;80.89
7940;BME280;4015;48.888;9.226;2022-11-11T09:23:30;158198.84;;;11.76;78.67
7940;BME280;4015;48.888;9.226;2022-11-11T09:25:55;158278.16;;;12.08;78.87
7940;BME280;4015;48.888;9.226;2022-11-11T09:28:22;158349.75;;;12.36;78.66
7940;BME280;4015;48.888;9.226;2022-11-11T09:30:48;158331.84;;;12.29;77.61
7940;BME280;4015;48.888;9.226;2022-11-11T09:33:14;158501.97;;;12.97;76.65
7940;BME280;4015;48.888;9.226;2022-11-11T09:35:42;158587.72;;;13.31;75.34
7940;BME280;4015;48.888;9.226;2022-11-11T09:38:10;158658.13;;;13.59;72.87
7940;BME280;4015;48.888;9.226;2022-11-11T09:41:09;158792.50;;;14.13;73.56
7940;BME280;4015;48.888;9.226;2022-11-11T09:48:57;158644.06;;;13.54;74.87
7940;BME280;4015;48.888;9.226;2022-11-11T09:51:47;158697.78;;;13.75;75.75
7940;BME280;4015;48.888;9.226;2022-11-11T09:54:20;158768.22;;;14.03;72.12
7940;BME280;4015;48.888;9.226;2022-11-11T09:56:50;158816.84;;;14.22;72.05
7940;BME280;4015;48.888;9.226;2022-11-11T09:59:20;158842.44;;;14.32;70.83
7940;BME280;4015;48.888;9.226;2022-11-11T10:01:55;158787.41;;;14.11;72.25
7940;BME280;4015;48.888;9.226;2022-11-11T10:04:33;158955.22;;;14.77;70.63
7940;BME280;4015;48.888;9.226;2022-11-11T10:07:08;158983.34;;;14.89;71.04
7940;BME280;4015;48.888;9.226;2022-11-11T10:09:43;159305.03;;;16.16;66.58
7940;BME280;4015;48.888;9.226;2022-11-11T10:12:13;159283.22;;;16.08;67.31
7940;BME280;4015;48.888;9.226;2022-11-11T10:14:43;159322.97;;;16.24;68.38
7940;BME280;4015;48.888;9.226;2022-11-11T10:17:34;159546.09;;;17.12;64.11
7940;BME280;4015;48.888;9.226;2022-11-11T10:20:06;159506.31;;;16.96;63.33
7940;BME280;4015;48.888;9.226;2022-11-11T10:22:35;159755.22;;;17.95;60.55
7940;BME280;4015;48.888;9.226;2022-11-11T10:27:39;159485.81;;;16.88;63.18
7940;BME280;4015;48.888;9.226;2022-11-11T10:30:22;159869.44;;;18.41;60.06
7940;BME280;4015;48.888;9.226;2022-11-11T10:36:19;160046.66;;;19.11;57.17
7940;BME280;4015;48.888;9.226;2022-11-11T10:38:49;160137.78;;;19.47;56.58
7940;BME280;4015;48.888;9.226;2022-11-11T10:41:20;160110.88;;;19.36;56.38
7940;BME280;4015;48.888;9.226;2022-11-11T10:43:48;160037.66;;;19.07;57.60
7940;BME280;4015;48.888;9.226;2022-11-11T10:46:38;159954.22;;;18.74;58.58
7940;BME280;4015;48.888;9.226;2022-11-11T10:49:16;160227.75;;;19.83;56.99
7940;BME280;4015;48.888;9.226;2022-11-11T10:51:55;160271.44;;;20.00;55.66
7940;BME280;4015;48.888;9.226;2022-11-11T10:54:28;160173.84;;;19.61;56.21
7940;BME280;4015;48.888;9.226;2022-11-11T10:57:02;160406.38;;;20.54;53.99
7940;BME280;4015;48.888;9.226;2022-11-11T10:59:38;160379.38;;;20.43;55.10
7940;BME280;4015;48.888;9.226;2022-11-11T11:02:18;160419.22;;;20.59;54.93
7940;BME280;4015;48.888;9.226;2022-11-11T11:05:01;160157.09;;;19.55;57.02
7940;BME280;4015;48.888;9.226;2022-11-11T11:07:37;160200.78;;;19.72;57.04
7940;BME280;4015;48.888;9.226;2022-11-11T11:10:08;160128.84;;;19.44;56.47
7940;BME280;4015;48.888;9.226;2022-11-11T11:15:26;160178.97;;;19.63;56.33
7940;BME280;4015;48.888;9.226;2022-11-11T11:18:03;160311.25;;;20.16;55.41
7940;BME280;4015;48.888;9.226;2022-11-11T11:20:29;160253.47;;;19.93;56.44
7940;BME280;4015;48.888;9.226;2022-11-11T11:22:57;159936.25;;;18.67;58.14
7940;BME280;4015;48.888;9.226;2022-11-11T11:25:25;159662.81;;;17.59;62.12
7940;BME280;4015;48.888;9.226;2022-11-11T11:27:52;159641.00;;;17.50;62.95
7940;BME280;4015;48.888;9.226;2022-11-11T11:30:28;159493.53;;;16.91;65.32
7940;BME280;4015;48.888;9.226;2022-11-11T11:33:02;159429.38;;;16.66;65.23
7940;BME280;4015;48.888;9.226;2022-11-11T11:35:43;159360.13;;;16.38;67.07
7940;BME280;4015;48.888;9.226;2022-11-11T11:38:10;159371.69;;;16.43;68.29
7940;BME280;4015;48.888;9.226;2022-11-11T11:43:32;159324.25;;;16.24;68.00
7940;BME280;4015;48.888;9.226;2022-11-11T11:46:00;159358.84;;;16.38;67.12
7940;BME280;4015;48.888;9.226;2022-11-11T11:51:46;159296.03;;;16.13;67.58
7940;BME280;4015;48.888;9.226;2022-11-11T11:56:49;159352.47;;;16.35;68.04
7940;BME280;4015;48.888;9.226;2022-11-11T11:59:38;159266.56;;;16.01;68.11
7940;BME280;4015;48.888;9.226;2022-11-11T12:05:20;159296.03;;;16.13;68.57
7940;BME280;4015;48.888;9.226;2022-11-11T12:08:19;159446.09;;;16.73;66.34
7940;BME280;4015;48.888;9.226;2022-11-11T12:16:21;159357.56;;;16.37;67.54
7940;BME280;4015;48.888;9.226;2022-11-11T12:19:23;159419.13;;;16.62;66.07
7940;BME280;4015;48.888;9.226;2022-11-11T12:22:23;159392.19;;;16.51;65.20
7940;BME280;4015;48.888;9.226;2022-11-11T12:25:11;159419.13;;;16.62;65.66
7940;BME280;4015;48.888;9.226;2022-11-11T12:27:55;159476.88;;;16.85;66.45
7940;BME280;4015;48.888;9.226;2022-11-11T12:30:24;159443.50;;;16.71;66.32
7940;BME280;4015;48.888;9.226;2022-11-11T12:41:24;159324.25;;;16.24;68.17
7940;BME280;4015;48.888;9.226;2022-11-11T12:54:16;159449.94;;;16.74;65.51
7940;BME280;4015;48.888;9.226;2022-11-11T12:57:00;159358.84;;;16.38;66.77
7940;BME280;4015;48.888;9.226;2022-11-11T13:05:13;159265.28;;;16.01;67.90
7940;BME280;4015;48.888;9.226;2022-11-11T13:16:11;159243.50;;;15.92;68.49
7940;BME280;4015;48.888;9.226;2022-11-11T13:19:56;159303.75;;;16.16;68.31
7940;BME280;4015;48.888;9.226;2022-11-11T13:21:52;159378.06;;;16.45;69.48
7940;BME280;4015;48.888;9.226;2022-11-11T13:24:22;159399.88;;;16.54;66.14
7940;BME280;4015;48.888;9.226;2022-11-11T13:26:53;159375.50;;;16.44;67.45
7940;BME280;4015;48.888;9.226;2022-11-11T13:32:54;159429.38;;;16.66;65.17
7940;BME280;4015;48.888;9.226;2022-11-11T13:35:27;159443.50;;;16.71;64.52
7940;BME280;4015;48.888;9.226;2022-11-11T13:37:54;159317.81;;;16.22;67.44
7940;BME280;4015;48.888;9.226;2022-11-11T13:40:39;159292.22;;;16.11;67.63
7940;BME280;4015;48.888;9.226;2022-11-11T13:43:17;159287.09;;;16.09;68.29
7940;BME280;4015;48.888;9.226;2022-11-11T13:45:50;159238.34;;;15.90;67.76
7940;BME280;4015;48.888;9.226;2022-11-11T13:48:37;159252.44;;;15.96;68.11
7940;BME280;4015;48.888;9.226;2022-11-11T13:51:12;159264.00;;;16.00;67.99
7940;BME280;4015;48.888;9.226;2022-11-11T13:53:45;159311.41;;;16.19;69.92
7940;BME280;4015;48.888;9.226;2022-11-11T13:56:21;159303.75;;;16.16;68.69
7940;BME280;4015;48.888;9.226;2022-11-11T13:58:48;159294.75;;;16.12;68.92
7940;BME280;4015;48.888;9.226;2022-11-11T14:01:15;159284.50;;;16.08;69.67
7940;BME280;4015;48.888;9.226;2022-11-11T14:13:52;159233.22;;;15.88;68.95
7940;BME280;4015;48.888;9.226;2022-11-11T14:21:48;159126.81;;;15.46;69.78
7940;BME280;4015;48.888;9.226;2022-11-11T14:24:38;159139.63;;;15.51;69.41
7940;BME280;4015;48.888;9.226;2022-11-11T14:27:15;159085.84;;;15.29;69.34
7940;BME280;4015;48.888;9.226;2022-11-11T14:29:50;159087.13;;;15.30;69.59
7940;BME280;4015;48.888;9.226;2022-11-11T14:40:38;159039.72;;;15.11;72.74
7940;BME280;4015;48.888;9.226;2022-11-11T14:43:41;158994.88;;;14.93;72.37
7940;BME280;4015;48.888;9.226;2022-11-11T14:46:09;158985.94;;;14.90;73.24
7940;BME280;4015;48.888;9.226;2022-11-11T14:48:55;158950.06;;;14.75;74.02
7940;BME280;4015;48.888;9.226;2022-11-11T14:51:42;158921.88;;;14.64;74.84
7940;BME280;4015;48.888;9.226;2022-11-11T14:54:19;158898.84;;;14.55;75.61
7940;BME280;4015;48.888;9.226;2022-11-11T14:56:53;158869.34;;;14.43;76.07
7940;BME280;4015;48.888;9.226;2022-11-11T14:59:21;158820.69;;;14.24;76.87
7940;BME280;4015;48.888;9.226;2022-11-11T15:01:48;158784.84;;;14.10;76.86
7940;BME280;4015;48.888;9.226;2022-11-11T15:04:13;158755.41;;;13.98;77.64
7940;BME280;4015;48.888;9.226;2022-11-11T15:06:45;158710.59;;;13.80;79.56
7940;BME280;4015;48.888;9.226;2022-11-11T15:17:55;158627.41;;;13.47;80.03
7940;BME280;4015;48.888;9.226;2022-11-11T15:20:59;158586.44;;;13.31;81.09
7940;BME280;4015;48.888;9.226;2022-11-11T15:23:44;158554.41;;;13.18;81.44
7940;BME280;4015;48.888;9.226;2022-11-11T15:34:55;158459.75;;;12.80;83.19